No particular awareness of the weather is required.    There are no Weather-warnings


Meteo18 Weather Cam more information Meteo18 Weather Cam


Thunder radar more information blitzortung!


Rain radar more information rain snow radar


Visit our other weather sites:

Template documentation
and downloads

And another site



Weather Underground History page Text

Daily Summary for July 23, 2017 Units:  English    Metric   Both
« Previous Day
Next Day »
Daily Weekly Monthly Yearly Custom
  High: Low: Average:
Temperature: TemperatureC °F 13.3 °F 17.1 °F
Dew Point: DewpointC °F 11.4 °F 12.8 °F
Humidity: Humidity % 54 % 77 %
Wind Speed: WindSpeedKMH mph 0.0 mph 8.2 mph
Wind Gust: WindSpeedGustKMH mph - -
Wind:- - SW
Pressure: PressurehPa in 1014.8 in -
Precipitation: 1.0 in    
Historical Graphs
 
 
Tabular Data for July 23, 2017
Time Temperature Dew Point Pressure Wind Wind Speed Wind Gust Humidity Rainfall Rate (Hourly)
TemperatureC °F DewpointC °F PressurehPa in Calm     Humidity % HourlyPrecipMM in
00:02 15.7 °F 12.6 °F 1017.5 in SW 6.4 mph 17.7 mph 82 % 0.0 in
00:07 15.7 °F 12.6 °F 1017.5 in SW 6.4 mph 17.7 mph 82 % 0.0 in
00:12 15.6 °F 12.5 °F 1017.5 in SW 8.0 mph 17.7 mph 82 % 0.0 in
00:17 15.5 °F 12.4 °F 1017.8 in SW 8.0 mph 16.1 mph 82 % 0.0 in
00:22 15.4 °F 12.3 °F 1017.8 in SW 8.0 mph 16.1 mph 82 % 0.0 in
00:32 15.4 °F 12.5 °F 1017.8 in SW 9.7 mph 17.7 mph 83 % 0.0 in
00:37 15.3 °F 12.4 °F 1017.8 in SSW 6.4 mph 17.7 mph 83 % 0.0 in
00:42 15.3 °F 12.4 °F 1017.8 in SW 6.4 mph 17.7 mph 83 % 0.0 in
00:47 15.2 °F 12.3 °F 1017.8 in SW 9.7 mph 16.1 mph 83 % 0.0 in
00:52 15.1 °F 12.4 °F 1017.8 in SW 4.8 mph 16.1 mph 84 % 0.0 in
00:57 15.1 °F 12.4 °F 1017.8 in SSW 3.2 mph 16.1 mph 84 % 0.0 in
01:02 15.0 °F 12.3 °F 1018.2 in SW 4.8 mph 16.1 mph 84 % 0.0 in
01:12 14.8 °F 12.3 °F 1018.2 in SW 1.6 mph 12.9 mph 85 % 0.0 in
01:17 14.7 °F 12.2 °F 1018.2 in SSW 4.8 mph 11.3 mph 85 % 0.0 in
01:22 14.7 °F 12.4 °F 1018.5 in SW 6.4 mph 11.3 mph 86 % 0.0 in
01:27 14.6 °F 12.3 °F 1018.5 in WSW 3.2 mph 14.5 mph 86 % 0.0 in
01:32 14.6 °F 12.5 °F 1018.5 in SW 8.0 mph 14.5 mph 87 % 0.0 in
01:37 14.6 °F 12.5 °F 1018.5 in SW 6.4 mph 16.1 mph 87 % 0.0 in
01:42 14.5 °F 12.4 °F 1018.5 in WSW 4.8 mph 16.1 mph 87 % 0.0 in
01:47 14.4 °F 12.3 °F 1018.5 in SW 6.4 mph 12.9 mph 87 % 0.0 in
01:52 14.4 °F 12.3 °F 1018.5 in WSW 6.4 mph 12.9 mph 87 % 0.0 in
01:57 14.4 °F 12.4 °F 1018.5 in SW 4.8 mph 12.9 mph 88 % 0.0 in
02:02 14.3 °F 12.3 °F 1018.8 in SW 4.8 mph 12.9 mph 88 % 0.0 in
02:07 14.2 °F 12.2 °F 1018.5 in SW 4.8 mph 11.3 mph 88 % 0.0 in
02:12 14.1 °F 12.1 °F 1018.5 in SW 6.4 mph 11.3 mph 88 % 0.0 in
02:17 13.9 °F 12.1 °F 1018.5 in SSW 4.8 mph 11.3 mph 89 % 0.0 in
02:22 13.8 °F 12.0 °F 1018.5 in SSW 1.6 mph 11.3 mph 89 % 0.0 in
02:27 13.7 °F 11.9 °F 1018.5 in SW 4.8 mph 9.7 mph 89 % 0.0 in
02:32 13.5 °F 11.9 °F 1018.8 in SSW 6.4 mph 9.7 mph 90 % 0.0 in
02:42 13.3 °F 11.9 °F 1018.8 in SSW 4.8 mph 6.4 mph 91 % 0.0 in
02:47 13.4 °F 12.0 °F 1018.8 in SW 8.0 mph 9.7 mph 91 % 0.0 in
02:52 13.6 °F 12.2 °F 1018.8 in SSW 6.4 mph 9.7 mph 91 % 0.0 in
02:57 13.7 °F 12.3 °F 1018.8 in SW 6.4 mph 12.9 mph 91 % 0.0 in
03:02 13.7 °F 12.1 °F 1018.8 in WSW 8.0 mph 12.9 mph 90 % 0.0 in
03:12 13.7 °F 12.1 °F 1018.8 in WSW 11.3 mph 12.9 mph 90 % 0.0 in
03:17 13.8 °F 12.2 °F 1018.8 in SW 6.4 mph 14.5 mph 90 % 0.0 in
03:22 13.8 °F 12.2 °F 1018.8 in SW 8.0 mph 14.5 mph 90 % 0.0 in
03:27 13.7 °F 11.9 °F 1018.8 in SW 11.3 mph 14.5 mph 89 % 0.0 in
03:32 13.7 °F 11.9 °F 1018.8 in SSW 9.7 mph 14.5 mph 89 % 0.0 in
03:42 13.8 °F 12.0 °F 1018.8 in SW 4.8 mph 12.9 mph 89 % 0.0 in
03:47 13.7 °F 11.9 °F 1018.8 in South 8.0 mph 14.5 mph 89 % 0.0 in
03:52 13.7 °F 11.9 °F 1018.8 in SSW 4.8 mph 14.5 mph 89 % 0.0 in
03:57 13.7 °F 11.9 °F 1018.8 in SW 4.8 mph 12.9 mph 89 % 0.0 in
04:02 13.7 °F 11.9 °F 1018.8 in SW 6.4 mph 12.9 mph 89 % 0.0 in
04:07 13.8 °F 12.0 °F 1018.8 in SSW 6.4 mph 12.9 mph 89 % 0.0 in
04:12 13.9 °F 12.1 °F 1018.8 in SW 11.3 mph 12.9 mph 89 % 0.0 in
04:17 13.9 °F 11.9 °F 1018.8 in SSW 4.8 mph 16.1 mph 88 % 0.0 in
04:22 14.1 °F 12.1 °F 1018.8 in SW 11.3 mph 16.1 mph 88 % 0.0 in
04:32 14.1 °F 12.3 °F 1018.8 in South 9.7 mph 16.1 mph 89 % 0.0 in
04:37 14.2 °F 12.4 °F 1018.8 in WSW 6.4 mph 12.9 mph 89 % 0.0 in
04:42 14.2 °F 12.4 °F 1018.8 in SSW 8.0 mph 12.9 mph 89 % 0.0 in
04:47 14.3 °F 12.5 °F 1018.8 in SW 11.3 mph 17.7 mph 89 % 0.0 in
04:52 14.3 °F 12.3 °F 1018.8 in SW 8.0 mph 17.7 mph 88 % 0.0 in
04:57 14.4 °F 12.4 °F 1018.8 in SSW 6.4 mph 17.7 mph 88 % 0.0 in
05:02 14.4 °F 12.4 °F 1018.8 in SSW 4.8 mph 17.7 mph 88 % 0.0 in
05:12 14.5 °F 12.5 °F 1018.8 in SW 6.4 mph 16.1 mph 88 % 0.0 in
05:17 14.6 °F 12.6 °F 1018.8 in SSW 8.0 mph 12.9 mph 88 % 0.0 in
05:22 14.6 °F 12.6 °F 1018.8 in WSW 6.4 mph 12.9 mph 88 % 0.0 in
05:32 14.6 °F 12.5 °F 1018.8 in SSW 4.8 mph 14.5 mph 87 % 0.0 in
05:42 14.6 °F 12.5 °F 1018.8 in SW 6.4 mph 14.5 mph 87 % 0.0 in
05:52 14.6 °F 12.5 °F 1018.8 in SW 11.3 mph 14.5 mph 87 % 0.0 in
05:57 14.5 °F 12.4 °F 1018.8 in SW 8.0 mph 12.9 mph 87 % 0.0 in
06:02 14.5 °F 12.5 °F 1019.2 in SW 9.7 mph 12.9 mph 88 % 0.0 in
06:12 14.5 °F 12.5 °F 1019.2 in SW 4.8 mph 12.9 mph 88 % 0.0 in
06:17 14.5 °F 12.5 °F 1019.2 in SSW 6.4 mph 12.9 mph 88 % 0.0 in
06:22 14.4 °F 12.4 °F 1019.2 in SW 8.0 mph 12.9 mph 88 % 0.0 in
06:32 14.6 °F 12.6 °F 1019.2 in SW 6.4 mph 12.9 mph 88 % 0.0 in
06:42 14.7 °F 12.6 °F 1019.2 in SSW 6.4 mph 14.5 mph 87 % 0.0 in
06:47 14.7 °F 12.4 °F 1019.2 in SW 4.8 mph 14.5 mph 86 % 0.0 in
06:52 14.7 °F 12.4 °F 1019.2 in SW 3.2 mph 14.5 mph 86 % 0.0 in
07:02 14.8 °F 12.5 °F 1019.2 in WSW 8.0 mph 16.1 mph 86 % 0.0 in
07:12 14.8 °F 12.5 °F 1019.5 in SW 6.4 mph 16.1 mph 86 % 0.0 in
07:22 14.8 °F 12.5 °F 1019.5 in WSW 11.3 mph 16.1 mph 86 % 0.0 in
07:32 14.8 °F 12.5 °F 1019.5 in SW 8.0 mph 12.9 mph 86 % 0.0 in
07:42 14.9 °F 12.6 °F 1019.5 in WSW 4.8 mph 12.9 mph 86 % 0.0 in
07:47 14.9 °F 12.6 °F 1019.5 in SW 6.4 mph 14.5 mph 86 % 0.0 in
07:52 14.9 °F 12.6 °F 1019.5 in SW 8.0 mph 14.5 mph 86 % 0.0 in
08:02 15.1 °F 12.6 °F 1019.5 in West 6.4 mph 14.5 mph 85 % 0.0 in
08:07 15.1 °F 12.6 °F 1019.5 in SSW 4.8 mph 20.9 mph 85 % 0.0 in
08:12 15.2 °F 12.7 °F 1019.5 in SW 9.7 mph 20.9 mph 85 % 0.0 in
08:17 15.2 °F 12.5 °F 1019.5 in WSW 4.8 mph 20.9 mph 84 % 0.0 in
08:22 15.3 °F 12.6 °F 1019.9 in SW 8.0 mph 20.9 mph 84 % 0.0 in
08:32 15.4 °F 12.7 °F 1019.9 in SW 8.0 mph 19.3 mph 84 % 0.0 in
08:42 15.6 °F 12.9 °F 1019.9 in WSW 8.0 mph 16.1 mph 84 % 0.0 in
08:52 15.6 °F 12.7 °F 1019.9 in West 6.4 mph 16.1 mph 83 % 0.0 in
09:02 15.6 °F 12.7 °F 1019.9 in WSW 6.4 mph 17.7 mph 83 % 0.0 in
09:07 15.7 °F 12.8 °F 1019.9 in West 6.4 mph 17.7 mph 83 % 0.0 in
09:12 15.9 °F 13.0 °F 1019.9 in WSW 8.0 mph 17.7 mph 83 % 0.0 in
09:17 16.1 °F 13.0 °F 1019.9 in SW 6.4 mph 20.9 mph 82 % 0.0 in
09:22 16.3 °F 13.2 °F 1019.9 in WSW 17.7 mph 20.9 mph 82 % 0.0 in
09:32 16.3 °F 12.5 °F 1019.9 in West 6.4 mph 20.9 mph 78 % 0.0 in
09:42 16.5 °F 12.7 °F 1019.9 in WSW 11.3 mph 24.1 mph 78 % 0.0 in
09:52 17.0 °F 12.9 °F 1019.9 in WSW 8.0 mph 22.5 mph 77 % 0.0 in
10:02 16.8 °F 12.5 °F 1019.9 in West 8.0 mph 20.9 mph 76 % 0.0 in
10:07 16.9 °F 12.8 °F 1019.9 in West 14.5 mph 20.9 mph 77 % 0.0 in
10:12 16.9 °F 12.6 °F 1019.9 in SW 9.7 mph 20.9 mph 76 % 0.0 in
10:22 17.0 °F 12.3 °F 1019.9 in WSW 8.0 mph 20.9 mph 74 % 0.0 in
10:32 17.1 °F 12.6 °F 1019.9 in WSW 11.3 mph 24.1 mph 75 % 0.0 in
10:42 17.6 °F 12.5 °F 1019.9 in SSW 8.0 mph 22.5 mph 72 % 0.0 in
10:47 17.6 °F 12.7 °F 1019.9 in SW 6.4 mph 24.1 mph 73 % 0.0 in
10:52 17.7 °F 12.4 °F 1019.9 in West 11.3 mph 24.1 mph 71 % 0.0 in
11:02 17.7 °F 12.4 °F 1019.9 in WSW 19.3 mph 24.1 mph 71 % 0.0 in
11:12 17.9 °F 12.6 °F 1019.9 in WSW 14.5 mph 22.5 mph 71 % 0.0 in
11:17 17.9 °F 12.6 °F 1019.9 in SW 12.9 mph 22.5 mph 71 % 0.0 in
11:22 17.7 °F 12.8 °F 1019.9 in WSW 12.9 mph 22.5 mph 73 % 0.0 in
11:32 17.0 °F 13.1 °F 1020.2 in SW 8.0 mph 20.9 mph 78 % 0.0 in
11:42 16.6 °F 13.1 °F 1019.9 in SW 16.1 mph 24.1 mph 80 % 0.0 in
11:47 16.8 °F 13.1 °F 1020.2 in WSW 11.3 mph 24.1 mph 79 % 0.0 in
11:52 17.3 °F 13.0 °F 1019.9 in WSW 22.5 mph 24.1 mph 76 % 0.0 in
12:02 17.8 °F 12.9 °F 1019.9 in SW 9.7 mph 30.6 mph 73 % 0.0 in
12:12 18.4 °F 13.0 °F 1019.9 in SW 8.0 mph 32.2 mph 71 % 0.0 in
12:17 18.7 °F 13.1 °F 1019.9 in West 8.0 mph 27.4 mph 70 % 0.0 in
12:22 18.8 °F 13.0 °F 1019.9 in West 12.9 mph 27.4 mph 69 % 0.0 in
12:27 18.9 °F 12.6 °F 1019.9 in WSW 17.7 mph 20.9 mph 67 % 0.0 in
12:32 18.6 °F 12.1 °F 1019.9 in West 16.1 mph 20.9 mph 66 % 0.0 in
12:42 18.8 °F 12.5 °F 1019.9 in SW 6.4 mph 25.7 mph 67 % 0.0 in
12:52 19.1 °F 12.6 °F 1019.9 in WNW 12.9 mph 27.4 mph 66 % 0.0 in
13:02 18.9 °F 12.2 °F 1019.9 in SW 8.0 mph 25.7 mph 65 % 0.0 in
13:12 19.9 °F 12.9 °F 1019.5 in SW 6.4 mph 25.7 mph 64 % 0.0 in
13:17 19.9 °F 12.4 °F 1019.5 in West 8.0 mph 22.5 mph 62 % 0.0 in
13:22 19.9 °F 12.4 °F 1019.5 in West 12.9 mph 22.5 mph 62 % 0.0 in
13:32 20.4 °F 11.9 °F 1019.5 in SW 17.7 mph 24.1 mph 58 % 0.0 in
13:37 20.3 °F 12.0 °F 1019.2 in WSW 6.4 mph 20.9 mph 59 % 0.0 in
13:42 20.4 °F 12.1 °F 1019.5 in WSW 8.0 mph 20.9 mph 59 % 0.0 in
13:52 20.5 °F 12.2 °F 1019.5 in West 6.4 mph 25.7 mph 59 % 0.0 in
13:57 20.7 °F 12.4 °F 1019.5 in SSW 11.3 mph 25.7 mph 59 % 0.0 in
14:02 20.4 °F 11.6 °F 1019.5 in SW 16.1 mph 25.7 mph 57 % 0.0 in
14:12 20.7 °F 11.6 °F 1019.2 in WSW 27.4 mph 27.4 mph 56 % 0.0 in
14:17 21.0 °F 11.9 °F 1019.2 in West 14.5 mph 25.7 mph 56 % 0.0 in
14:22 21.2 °F 12.3 °F 1019.2 in West 11.3 mph 25.7 mph 57 % 0.0 in
14:32 21.1 °F 12.0 °F 1019.2 in SW 8.0 mph 27.4 mph 56 % 0.0 in
14:37 20.8 °F 11.7 °F 1019.2 in SW 14.5 mph 29.0 mph 56 % 0.0 in
14:42 20.7 °F 11.6 °F 1019.2 in WSW 4.8 mph 29.0 mph 56 % 0.0 in
14:47 20.8 °F 11.7 °F 1019.2 in West 8.0 mph 19.3 mph 56 % 0.0 in
14:57 20.5 °F 11.4 °F 1019.2 in West 19.3 mph 24.1 mph 56 % 0.0 in
15:02 20.5 °F 11.4 °F 1019.2 in SW 16.1 mph 24.1 mph 56 % 0.0 in
15:07 20.4 °F 11.6 °F 1019.2 in West 12.9 mph 24.1 mph 57 % 0.0 in
15:12 20.3 °F 11.5 °F 1018.8 in West 8.0 mph 24.1 mph 57 % 0.0 in
15:17 20.2 °F 11.7 °F 1018.8 in West 8.0 mph 24.1 mph 58 % 0.0 in
15:22 20.2 °F 11.9 °F 1018.8 in WNW 8.0 mph 24.1 mph 59 % 0.0 in
15:27 20.3 °F 12.0 °F 1018.8 in West 9.7 mph 22.5 mph 59 % 0.0 in
15:32 20.6 °F 12.0 °F 1018.8 in SW 6.4 mph 22.5 mph 58 % 0.0 in
15:42 20.8 °F 12.0 °F 1018.8 in WSW 12.9 mph 22.5 mph 57 % 0.0 in
15:47 21.0 °F 12.4 °F 1018.5 in SSW 8.0 mph 20.9 mph 58 % 0.0 in
15:52 21.3 °F 11.9 °F 1018.5 in WSW 8.0 mph 20.9 mph 55 % 0.0 in
15:57 21.3 °F 11.9 °F 1018.5 in West 8.0 mph 19.3 mph 55 % 0.0 in
16:02 21.4 °F 12.0 °F 1018.5 in SW 12.9 mph 19.3 mph 55 % 0.0 in
16:12 21.3 °F 11.9 °F 1018.5 in SW 9.7 mph 24.1 mph 55 % 0.0 in
16:17 21.1 °F 12.0 °F 1018.2 in SW 8.0 mph 24.1 mph 56 % 0.0 in
16:22 20.9 °F 11.8 °F 1018.2 in WSW 12.9 mph 24.1 mph 56 % 0.0 in
16:27 20.9 °F 11.8 °F 1018.2 in WSW 9.7 mph 19.3 mph 56 % 0.0 in
16:32 20.9 °F 12.1 °F 1018.2 in WSW 6.4 mph 19.3 mph 57 % 0.0 in
16:37 20.9 °F 11.8 °F 1018.2 in WSW 16.1 mph 25.7 mph 56 % 0.0 in
16:42 20.9 °F 12.1 °F 1018.2 in West 11.3 mph 25.7 mph 57 % 0.0 in
16:47 20.9 °F 12.1 °F 1018.2 in West 9.7 mph 25.7 mph 57 % 0.0 in
16:52 20.9 °F 12.3 °F 1018.2 in West 9.7 mph 25.7 mph 58 % 0.0 in
16:57 21.1 °F 12.2 °F 1017.8 in WSW 17.7 mph 19.3 mph 57 % 0.0 in
17:02 21.1 °F 12.0 °F 1017.8 in WSW 14.5 mph 19.3 mph 56 % 0.0 in
17:12 21.4 °F 12.0 °F 1017.8 in WSW 9.7 mph 19.3 mph 55 % 0.0 in
17:17 21.6 °F 12.2 °F 1017.8 in WSW 8.0 mph 19.3 mph 55 % 0.0 in
17:22 21.7 °F 12.5 °F 1017.5 in West 11.3 mph 19.3 mph 56 % 0.0 in
17:32 21.7 °F 12.0 °F 1017.5 in WSW 22.5 mph 22.5 mph 54 % 0.0 in
17:37 21.6 °F 12.2 °F 1017.5 in SW 12.9 mph 25.7 mph 55 % 0.0 in
17:42 21.7 °F 12.3 °F 1017.2 in West 9.7 mph 25.7 mph 55 % 0.0 in
17:47 21.7 °F 12.3 °F 1017.2 in West 6.4 mph 24.1 mph 55 % 0.0 in
17:52 21.5 °F 12.1 °F 1017.2 in SW 12.9 mph 24.1 mph 55 % 0.0 in
17:57 21.5 °F 12.4 °F 1017.2 in WSW 6.4 mph 29.0 mph 56 % 0.0 in
18:02 21.6 °F 12.4 °F 1017.2 in WSW 19.3 mph 29.0 mph 56 % 0.0 in
18:12 21.5 °F 12.4 °F 1017.2 in West 4.8 mph 25.7 mph 56 % 0.0 in
18:17 21.4 °F 12.5 °F 1017.2 in WSW 9.7 mph 19.3 mph 57 % 0.0 in
18:22 21.3 °F 12.4 °F 1017.2 in WSW 19.3 mph 25.7 mph 57 % 0.0 in
18:32 21.2 °F 12.6 °F 1017.2 in West 6.4 mph 25.7 mph 58 % 0.0 in
18:37 21.0 °F 12.9 °F 1017.2 in SSW 4.8 mph 25.7 mph 60 % 0.0 in
18:42 20.8 °F 12.7 °F 1017.2 in WNW 6.4 mph 25.7 mph 60 % 0.0 in
18:47 20.6 °F 12.8 °F 1017.2 in WSW 12.9 mph 25.7 mph 61 % 0.0 in
18:57 20.3 °F 13.3 °F 1017.2 in WSW 12.9 mph 20.9 mph 64 % 0.0 in
19:02 20.0 °F 13.2 °F 1017.2 in West 14.5 mph 20.9 mph 65 % 0.0 in
19:12 19.7 °F 13.6 °F 1017.5 in West 12.9 mph 25.7 mph 68 % 0.0 in
19:22 19.1 °F 14.1 °F 1017.2 in SW 12.9 mph 29.0 mph 73 % 0.0 in
19:32 18.9 °F 14.2 °F 1017.2 in WSW 11.3 mph 27.4 mph 74 % 0.0 in
19:37 18.9 °F 14.2 °F 1017.2 in WSW 11.3 mph 24.1 mph 74 % 0.0 in
19:42 18.8 °F 14.3 °F 1017.2 in WNW 4.8 mph 24.1 mph 75 % 0.0 in
19:47 18.7 °F 14.4 °F 1017.2 in WSW 6.4 mph 20.9 mph 76 % 0.0 in
19:52 18.7 °F 14.4 °F 1017.2 in West 4.8 mph 20.9 mph 76 % 0.0 in
19:57 18.6 °F 14.3 °F 1017.2 in WSW 9.7 mph 11.3 mph 76 % 0.0 in
20:02 18.4 °F 14.5 °F 1017.2 in West 9.7 mph 11.3 mph 78 % 0.0 in
20:12 18.2 °F 14.7 °F 1017.2 in WSW 12.9 mph 17.7 mph 80 % 0.0 in
20:17 17.9 °F 14.4 °F 1016.8 in SW 8.0 mph 16.1 mph 80 % 0.0 in
20:22 17.8 °F 14.5 °F 1016.8 in SW 8.0 mph 16.1 mph 81 % 0.0 in
20:32 17.7 °F 14.6 °F 1016.5 in WSW 4.8 mph 20.9 mph 82 % 0.0 in
20:37 17.7 °F 14.6 °F 1016.5 in WSW 1.6 mph 16.1 mph 82 % 0.0 in
20:47 17.6 °F 14.7 °F 1016.5 in West 4.8 mph 11.3 mph 83 % 0.0 in
20:57 17.4 °F 14.7 °F 1016.1 in Calm   6.4 mph 84 % 0.0 in
21:02 17.4 °F 14.7 °F 1016.1 in WSW 1.6 mph 6.4 mph 84 % 0.0 in
21:07 17.4 °F 14.9 °F 1016.1 in SW 3.2 mph 6.4 mph 85 % 0.0 in
21:12 17.4 °F 14.9 °F 1016.1 in West 1.6 mph 6.4 mph 85 % 0.0 in
21:17 17.4 °F 14.9 °F 1016.1 in SW 1.6 mph 6.4 mph 85 % 0.0 in
21:22 17.4 °F 14.9 °F 1015.8 in Calm   6.4 mph 85 % 0.0 in
21:32 17.3 °F 14.8 °F 1015.8 in Calm   1.6 mph 85 % 0.0 in
21:37 17.3 °F 14.9 °F 1015.8 in SSW 3.2 mph 4.8 mph 86 % 0.0 in
21:42 17.2 °F 14.8 °F 1015.8 in SSW 1.6 mph 4.8 mph 86 % 0.0 in
21:47 17.2 °F 15.0 °F 1015.8 in SW 1.6 mph 6.4 mph 87 % 0.0 in
21:52 17.1 °F 15.1 °F 1015.8 in SSW 1.6 mph 6.4 mph 88 % 0.0 in
21:57 17.0 °F 15.0 °F 1015.8 in SE 4.8 mph 6.4 mph 88 % 0.0 in
22:02 16.9 °F 14.9 °F 1015.8 in SW 8.0 mph 8.0 mph 88 % 0.0 in
22:12 16.9 °F 14.9 °F 1015.8 in SSW 4.8 mph 12.9 mph 88 % 0.0 in
22:17 16.9 °F 15.1 °F 1015.8 in SW 3.2 mph 12.9 mph 89 % 0.0 in
22:22 16.8 °F 15.0 °F 1015.8 in SSW 3.2 mph 12.9 mph 89 % 0.0 in
22:27 16.8 °F 15.0 °F 1015.8 in SW 6.4 mph 9.7 mph 89 % 0.0 in
22:32 16.8 °F 15.1 °F 1015.8 in SSW 4.8 mph 9.7 mph 90 % 0.0 in
22:37 16.7 °F 15.1 °F 1015.8 in SSW 3.2 mph 9.7 mph 90 % 0.0 in
22:42 16.6 °F 15.1 °F 1015.5 in SSW 4.8 mph 9.7 mph 91 % 0.0 in
22:52 16.5 °F 15.2 °F 1015.5 in SSW 4.8 mph 8.0 mph 92 % 0.0 in
22:57 16.4 °F 15.1 °F 1015.5 in SW 6.4 mph 6.4 mph 92 % 0.3 in
23:02 16.4 °F 15.1 °F 1015.5 in SSW 3.2 mph 6.4 mph 92 % 0.3 in
23:07 16.4 °F 15.3 °F 1015.1 in SSW 8.0 mph 8.0 mph 93 % 0.3 in
23:12 16.4 °F 15.3 °F 1015.1 in SSW 6.4 mph 8.0 mph 93 % 0.3 in
23:17 16.4 °F 15.3 °F 1015.1 in SW 4.8 mph 14.5 mph 93 % 0.5 in
23:22 16.3 °F 15.0 °F 1015.1 in SW 8.0 mph 14.5 mph 92 % 0.5 in
23:32 16.3 °F 15.2 °F 1014.8 in SW 3.2 mph 14.5 mph 93 % 0.8 in
23:37 16.3 °F 15.2 °F 1015.1 in SW 6.4 mph 12.9 mph 93 % 1.0 in
23:47 16.2 °F 15.1 °F 1014.8 in WSW 3.2 mph 14.5 mph 93 % 1.0 in
23:52 16.2 °F 15.1 °F 1014.8 in WSW 6.4 mph 14.5 mph 93 % 1.0 in
Meteo18
Compliments of Weather Underground - 4 mb

Script developed by  Jim McMurry - jmcmurry@mwt.net Adapted for the template by  Wim van der Kuil - Leuven-Template.eu

You find our weather info also at:

European Weather Network

Weather Underground

Equipment we use:

Weather-station
Davis Vue

Weather-program
Meteobridge

Weather-server
Raspberry PI 2 B+

Provider
1 and 1

Davis Vue

Meteobridge

Raspberry PI 2 B+

1 and 1